Time;durP1;ratioP1;P1;durP2;ratioP2;P2;SDS_P1;SDS_P2;PMS_P1;PMS_P2;Temp;Humidity;BMP_temperature;BMP_pressure;BME280_temperature;BME280_humidity;BME280_pressure;Samples;Min_cycle;Max_cycle;Signal;HPM_P1;HPM_P2
2022/01/16 00:01:44;;;;;;;;;;;-0.70;79.10;;;;;;5054415;28;20396;-77
2022/01/16 00:04:10;;;;;;;;;;;-0.80;78.80;;;;;;5058972;28;19947;-78
2022/01/16 00:06:45;;;;;;;;;;;-0.80;79.10;;;;;;5051343;28;20028;-80
2022/01/16 00:09:12;;;;;;;;;;;-0.80;79.10;;;;;;5050821;28;20404;-77
2022/01/16 00:11:38;;;;;;;;;;;-0.80;80.00;;;;;;5048602;28;19970;-78
2022/01/16 00:14:06;;;;;;;;;;;-0.80;80.00;;;;;;5069692;28;19920;-78
2022/01/16 00:16:33;;;;;;;;;;;-0.80;80.00;;;;;;5047210;28;19932;-79
2022/01/16 00:19:00;;;;;;;;;;;-0.80;79.50;;;;;;5041073;28;20416;-79
2022/01/16 00:21:36;;;;;;;;;;;-0.80;79.40;;;;;;5054742;28;19924;-79
2022/01/16 00:24:03;;;;;;;;;;;-0.80;80.00;;;;;;5062783;28;20381;-77
2022/01/16 00:26:30;;;;;;;;;;;-0.80;79.50;;;;;;5034499;28;19924;-79
2022/01/16 00:28:57;;;;;;;;;;;-0.80;79.20;;;;;;5036703;28;20443;-80
2022/01/16 00:31:24;;;;;;;;;;;-0.80;79.50;;;;;;5046466;28;19923;-79
2022/01/16 00:33:51;;;;;;;;;;;-0.80;79.00;;;;;;5048355;28;19920;-79
2022/01/16 00:36:19;;;;;;;;;;;-0.90;78.90;;;;;;5037279;28;19967;-78
2022/01/16 00:38:50;;;;;;;;;;;-0.90;79.00;;;;;;5038427;28;20352;-78
2022/01/16 00:41:18;;;;;;;;;;;-0.90;78.90;;;;;;5056379;28;19935;-80
2022/01/16 00:43:45;;;;;;;;;;;-1.00;81.00;;;;;;5044068;28;19925;-80
2022/01/16 00:46:12;;;;;;;;;;;-1.20;81.80;;;;;;5038777;28;20376;-78
2022/01/16 00:48:39;;;;;;;;;;;-1.20;83.30;;;;;;5038979;28;19943;-77
2022/01/16 00:51:06;;;;;;;;;;;-1.20;82.90;;;;;;5070366;28;19920;-79
2022/01/16 00:53:33;;;;;;;;;;;-1.30;82.00;;;;;;5056545;28;19921;-77
2022/01/16 00:56:00;;;;;;;;;;;-1.30;82.60;;;;;;5058505;28;19924;-80
2022/01/16 00:58:28;;;;;;;;;;;-1.30;82.50;;;;;;5036970;28;19921;-78
2022/01/16 01:00:55;;;;;;;;;;;-1.30;82.60;;;;;;5033563;28;19921;-77
2022/01/16 01:03:22;;;;;;;;;;;-1.30;82.50;;;;;;5069348;28;19967;-76
2022/01/16 01:05:49;;;;;;;;;;;-1.30;82.40;;;;;;5052983;28;19935;-79
2022/01/16 01:08:17;;;;;;;;;;;-1.40;83.10;;;;;;5038569;28;19987;-78
2022/01/16 01:10:47;;;;;;;;;;;-1.40;83.60;;;;;;5045123;28;20387;-79
2022/01/16 01:13:30;;;;;;;;;;;-1.40;83.40;;;;;;5069871;28;20453;-78
2022/01/16 01:16:03;;;;;;;;;;;-1.40;82.50;;;;;;5040228;28;19970;-78
2022/01/16 01:18:31;;;;;;;;;;;-1.30;84.10;;;;;;5045394;28;20320;-78
2022/01/16 01:20:59;;;;;;;;;;;-1.20;83.90;;;;;;5058931;28;19921;-78
2022/01/16 01:23:25;;;;;;;;;;;-1.20;83.30;;;;;;5030881;28;19975;-78
2022/01/16 01:25:52;;;;;;;;;;;-1.20;82.60;;;;;;5061052;28;19920;-78
2022/01/16 01:28:19;;;;;;;;;;;-1.10;83.30;;;;;;5057377;28;19951;-79
2022/01/16 01:30:46;;;;;;;;;;;-1.10;83.50;;;;;;5073065;28;20300;-80
2022/01/16 01:33:15;;;;;;;;;;;-1.10;83.10;;;;;;5046079;28;20445;-78
2022/01/16 01:35:42;;;;;;;;;;;-1.10;82.80;;;;;;5029361;28;19960;-80
2022/01/16 01:38:10;;;;;;;;;;;-1.10;82.70;;;;;;5036443;28;19925;-78
2022/01/16 01:40:39;;;;;;;;;;;-1.20;82.30;;;;;;5051193;28;19924;-78
2022/01/16 01:51:15;;;;;;;;;;;-1.30;81.80;;;;;;5046037;28;19921;-80
2022/01/16 01:53:43;;;;;;;;;;;-1.30;82.20;;;;;;5041733;28;19921;-80
2022/01/16 01:56:13;;;;;;;;;;;-1.30;82.70;;;;;;5025717;28;19928;-79
2022/01/16 01:58:39;;;;;;;;;;;-1.30;81.60;;;;;;5059324;28;20557;-79
2022/01/16 02:01:06;;;;;;;;;;;-1.30;81.20;;;;;;5066096;28;19925;-79
2022/01/16 02:06:00;;;;;;;;;;;-1.40;81.10;;;;;;5065176;28;19920;-78
2022/01/16 02:08:27;;;;;;;;;;;-1.40;81.00;;;;;;5055901;28;19970;-80
2022/01/16 02:10:56;;;;;;;;;;;-1.40;80.80;;;;;;5070740;28;19927;-78
2022/01/16 02:13:30;;;;;;;;;;;-1.40;81.60;;;;;;5018919;28;19928;-79
2022/01/16 02:34:59;;;;;;;;;;;-1.40;81.30;;;;;;5077015;28;19924;-79
2022/01/16 02:37:25;;;;;;;;;;;-1.50;81.20;;;;;;5067634;28;19982;-77
2022/01/16 02:39:55;;;;;;;;;;;-1.50;80.80;;;;;;5033478;28;19978;-79
2022/01/16 02:42:27;;;;;;;;;;;-1.60;82.50;;;;;;5070348;28;19928;-78
2022/01/16 02:45:02;;;;;;;;;;;-1.60;81.50;;;;;;5046510;28;19932;-77
2022/01/16 02:47:29;;;;;;;;;;;-1.60;81.40;;;;;;5034633;28;19928;-77
2022/01/16 02:50:16;;;;;;;;;;;-1.70;82.00;;;;;;5046976;28;20023;-78
2022/01/16 02:52:43;;;;;;;;;;;-1.70;82.00;;;;;;5055463;28;19971;-78
2022/01/16 02:55:13;;;;;;;;;;;-1.70;81.60;;;;;;5038577;28;19925;-78
2022/01/16 02:57:40;;;;;;;;;;;-1.70;83.40;;;;;;5039770;28;19974;-80
2022/01/16 03:00:07;;;;;;;;;;;-1.70;83.30;;;;;;5035290;28;19948;-78
2022/01/16 03:02:34;;;;;;;;;;;-1.70;82.70;;;;;;5055048;28;19925;-79
2022/01/16 03:05:01;;;;;;;;;;;-1.70;82.80;;;;;;5048823;28;20023;-80
2022/01/16 03:07:27;;;;;;;;;;;-1.70;83.40;;;;;;5034812;28;20438;-79
2022/01/16 03:10:08;;;;;;;;;;;-1.80;83.10;;;;;;5043897;28;19921;-77
2022/01/16 03:12:35;;;;;;;;;;;-1.80;83.10;;;;;;5035442;28;19943;-78
2022/01/16 03:15:02;;;;;;;;;;;-1.80;83.00;;;;;;5034341;28;19920;-78
2022/01/16 03:21:52;;;;;;;;;;;-1.80;83.20;;;;;;5039019;28;19920;-80
2022/01/16 03:23:07;;;;;;;;;;;-1.80;83.10;;;;;;5074218;28;19920;-77
2022/01/16 03:25:34;;;;;;;;;;;-1.80;82.90;;;;;;5075248;28;19924;-78
2022/01/16 03:28:01;;;;;;;;;;;-1.90;83.10;;;;;;5072631;28;20346;-77
2022/01/16 03:30:28;;;;;;;;;;;-1.90;82.80;;;;;;5034905;28;19921;-78
2022/01/16 03:32:55;;;;;;;;;;;-1.90;84.10;;;;;;5054021;28;19971;-77
2022/01/16 03:35:22;;;;;;;;;;;-1.90;83.10;;;;;;5054267;28;19925;-77
2022/01/16 03:37:49;;;;;;;;;;;-1.90;82.70;;;;;;5039975;28;19932;-77
2022/01/16 03:40:16;;;;;;;;;;;-2.00;82.30;;;;;;5039247;28;19921;-78
2022/01/16 03:42:44;;;;;;;;;;;-2.00;82.50;;;;;;5051448;28;19927;-77
2022/01/16 03:45:11;;;;;;;;;;;-2.10;83.00;;;;;;5068057;28;19920;-79
2022/01/16 03:47:38;;;;;;;;;;;-2.10;83.90;;;;;;5060237;28;19962;-77
2022/01/16 03:50:05;;;;;;;;;;;-2.10;83.90;;;;;;5065311;28;19974;-80
2022/01/16 03:52:32;;;;;;;;;;;-2.10;83.90;;;;;;5044526;28;19978;-77
2022/01/16 03:54:59;;;;;;;;;;;-2.10;84.10;;;;;;5054666;28;19921;-80
2022/01/16 03:57:26;;;;;;;;;;;-2.10;83.70;;;;;;5045744;28;19924;-77
2022/01/16 03:59:53;;;;;;;;;;;-2.20;83.70;;;;;;5044107;28;20346;-76
2022/01/16 04:02:20;;;;;;;;;;;-2.20;85.10;;;;;;5037259;28;19928;-80
2022/01/16 04:04:47;;;;;;;;;;;-2.20;84.90;;;;;;5051028;28;20319;-78
2022/01/16 04:07:21;;;;;;;;;;;-2.20;84.30;;;;;;5056466;28;20406;-80
2022/01/16 04:09:47;;;;;;;;;;;-2.20;83.60;;;;;;5059342;28;19970;-80
2022/01/16 04:12:20;;;;;;;;;;;-2.30;83.40;;;;;;5035114;28;20290;-77
2022/01/16 04:17:15;;;;;;;;;;;-2.30;83.30;;;;;;5052151;28;19920;-80
2022/01/16 04:19:42;;;;;;;;;;;-2.40;83.10;;;;;;5035959;28;19920;-78
2022/01/16 04:22:09;;;;;;;;;;;-2.40;82.90;;;;;;5039687;28;19924;-77
2022/01/16 04:24:36;;;;;;;;;;;-2.40;82.60;;;;;;5049878;28;19920;-77
2022/01/16 04:27:03;;;;;;;;;;;-2.40;82.90;;;;;;5054983;28;19947;-77
2022/01/16 04:29:30;;;;;;;;;;;-2.30;83.40;;;;;;5073986;28;19927;-80
2022/01/16 04:31:57;;;;;;;;;;;-2.30;83.40;;;;;;5039851;28;20384;-77
2022/01/16 04:34:24;;;;;;;;;;;-2.30;82.70;;;;;;5064397;28;19932;-80
2022/01/16 04:36:50;;;;;;;;;;;-2.30;84.00;;;;;;5067380;28;20342;-79
2022/01/16 04:39:20;;;;;;;;;;;-2.30;85.30;;;;;;5024037;28;19928;-78
2022/01/16 04:44:32;;;;;;;;;;;-2.30;83.80;;;;;;5038450;28;19920;-80
2022/01/16 04:46:59;;;;;;;;;;;-2.30;83.30;;;;;;5044347;28;19920;-78
2022/01/16 04:49:26;;;;;;;;;;;-2.40;83.60;;;;;;5063694;28;19946;-80
2022/01/16 04:51:53;;;;;;;;;;;-2.40;83.40;;;;;;5051788;28;19924;-77
2022/01/16 04:54:20;;;;;;;;;;;-2.40;83.30;;;;;;5053072;28;19921;-79
2022/01/16 04:56:46;;;;;;;;;;;-2.40;84.40;;;;;;5064017;28;19952;-81
2022/01/16 04:59:13;;;;;;;;;;;-2.40;84.50;;;;;;5068111;28;19944;-77
2022/01/16 05:01:40;;;;;;;;;;;-2.30;84.60;;;;;;5073418;28;19970;-79
2022/01/16 05:04:07;;;;;;;;;;;-2.40;84.30;;;;;;5055497;28;20304;-80
2022/01/16 05:06:34;;;;;;;;;;;-2.40;83.80;;;;;;5051707;28;19931;-80
2022/01/16 05:09:01;;;;;;;;;;;-2.40;83.80;;;;;;5055250;28;19924;-77
2022/01/16 05:11:28;;;;;;;;;;;-2.40;83.60;;;;;;5067632;28;20369;-77
2022/01/16 05:16:38;;;;;;;;;;;-2.50;86.10;;;;;;5057984;28;20392;-78
2022/01/16 05:19:12;;;;;;;;;;;-2.50;86.30;;;;;;5039015;28;20393;-77
2022/01/16 05:21:40;;;;;;;;;;;-2.50;86.40;;;;;;5018695;28;19982;-77
2022/01/16 05:24:10;;;;;;;;;;;-2.50;85.70;;;;;;5060955;28;19986;-80
2022/01/16 05:26:41;;;;;;;;;;;-2.60;85.30;;;;;;5054258;28;19927;-78
2022/01/16 05:29:09;;;;;;;;;;;-2.60;84.90;;;;;;5039539;28;20403;-77
2022/01/16 05:31:36;;;;;;;;;;;-2.60;85.50;;;;;;5051593;28;19921;-77
2022/01/16 05:34:03;;;;;;;;;;;-2.60;84.80;;;;;;5043520;28;20442;-77
2022/01/16 05:36:30;;;;;;;;;;;-2.60;85.00;;;;;;5038815;28;19927;-78
2022/01/16 05:38:57;;;;;;;;;;;-2.60;84.50;;;;;;5049356;28;19921;-77
2022/01/16 05:41:24;;;;;;;;;;;-2.70;85.00;;;;;;5052193;28;19924;-77
2022/01/16 05:43:52;;;;;;;;;;;-2.60;84.60;;;;;;5058242;28;19924;-78
2022/01/16 05:46:19;;;;;;;;;;;-2.60;84.40;;;;;;5061122;28;19924;-77
2022/01/16 05:48:46;;;;;;;;;;;-2.70;83.80;;;;;;5068249;28;19971;-80
2022/01/16 05:51:13;;;;;;;;;;;-2.70;83.40;;;;;;5045271;28;19970;-81
2022/01/16 05:53:40;;;;;;;;;;;-2.70;83.20;;;;;;5063608;28;19920;-78
2022/01/16 05:56:07;;;;;;;;;;;-2.70;83.10;;;;;;5060080;28;20389;-79
2022/01/16 05:58:34;;;;;;;;;;;-2.70;84.20;;;;;;5050518;28;19920;-77
2022/01/16 06:01:00;;;;;;;;;;;-2.70;84.90;;;;;;5031990;28;19925;-77
2022/01/16 06:03:27;;;;;;;;;;;-2.80;84.20;;;;;;5033755;28;19921;-78
2022/01/16 06:05:54;;;;;;;;;;;-2.70;84.10;;;;;;5048223;28;19928;-77
2022/01/16 06:08:21;;;;;;;;;;;-2.70;83.80;;;;;;5032144;28;19929;-80
2022/01/16 06:10:48;;;;;;;;;;;-2.80;83.60;;;;;;5044341;28;19987;-77
2022/01/16 06:13:15;;;;;;;;;;;-2.80;83.70;;;;;;5055499;28;19971;-80
2022/01/16 06:15:41;;;;;;;;;;;-2.80;84.10;;;;;;5032154;28;19971;-77
2022/01/16 06:18:09;;;;;;;;;;;-2.80;83.90;;;;;;5026510;28;20031;-77
2022/01/16 06:20:35;;;;;;;;;;;-2.80;83.70;;;;;;5026377;28;19921;-77
2022/01/16 06:23:02;;;;;;;;;;;-2.90;84.20;;;;;;5044749;28;19921;-79
2022/01/16 06:25:29;;;;;;;;;;;-2.90;84.90;;;;;;5040847;28;20385;-79
2022/01/16 06:27:56;;;;;;;;;;;-2.90;84.30;;;;;;5051694;28;19947;-77
2022/01/16 06:30:23;;;;;;;;;;;-2.90;83.80;;;;;;5031281;28;19971;-78
2022/01/16 06:32:50;;;;;;;;;;;-2.90;83.30;;;;;;5031625;28;19921;-80
2022/01/16 06:35:16;;;;;;;;;;;-2.90;83.60;;;;;;5035322;28;19925;-77
2022/01/16 06:37:44;;;;;;;;;;;-3.00;83.70;;;;;;5038618;28;20023;-81
2022/01/16 06:40:12;;;;;;;;;;;-3.00;83.80;;;;;;5057897;28;20358;-77
2022/01/16 06:42:39;;;;;;;;;;;-3.00;83.70;;;;;;5028836;28;20347;-79
2022/01/16 06:45:06;;;;;;;;;;;-3.00;83.70;;;;;;5031423;28;19929;-78
2022/01/16 06:47:33;;;;;;;;;;;-3.00;85.50;;;;;;5035144;28;19999;-81
2022/01/16 06:50:00;;;;;;;;;;;-3.00;87.60;;;;;;5037566;28;19921;-80
2022/01/16 06:52:27;;;;;;;;;;;-3.00;86.80;;;;;;5024627;28;19925;-80
2022/01/16 06:54:54;;;;;;;;;;;-3.00;86.20;;;;;;5014521;28;19932;-77
2022/01/16 06:57:21;;;;;;;;;;;-3.00;85.30;;;;;;5023537;28;19925;-80
2022/01/16 06:59:48;;;;;;;;;;;-3.00;86.00;;;;;;5021525;28;20448;-77
2022/01/16 07:02:16;;;;;;;;;;;-3.00;85.90;;;;;;5016109;28;20404;-77
2022/01/16 07:04:44;;;;;;;;;;;-3.00;86.10;;;;;;5041681;28;19925;-77
2022/01/16 07:07:12;;;;;;;;;;;-3.00;85.70;;;;;;5030631;28;20023;-77
2022/01/16 07:09:44;;;;;;;;;;;-3.00;85.70;;;;;;5028399;28;20448;-77
2022/01/16 07:12:11;;;;;;;;;;;-3.00;87.20;;;;;;5021116;28;19925;-77
2022/01/16 07:14:37;;;;;;;;;;;-3.10;87.80;;;;;;5028697;28;20444;-79
2022/01/16 07:17:05;;;;;;;;;;;-3.00;87.00;;;;;;5033236;28;20380;-77
2022/01/16 07:19:32;;;;;;;;;;;-3.10;86.50;;;;;;5038385;28;19921;-80
2022/01/16 07:21:59;;;;;;;;;;;-3.10;86.30;;;;;;5038381;28;20308;-78
2022/01/16 07:24:25;;;;;;;;;;;-3.00;86.40;;;;;;5054045;28;20439;-80
2022/01/16 07:26:54;;;;;;;;;;;-3.00;86.00;;;;;;5045414;28;19925;-77
2022/01/16 07:29:21;;;;;;;;;;;-3.00;85.60;;;;;;5051770;28;19932;-77
2022/01/16 07:31:48;;;;;;;;;;;-3.00;85.90;;;;;;5047301;28;19921;-80
2022/01/16 07:34:15;;;;;;;;;;;-3.00;85.50;;;;;;5059053;28;19920;-80
2022/01/16 07:36:42;;;;;;;;;;;-3.00;86.30;;;;;;5042814;28;19925;-79
2022/01/16 07:39:09;;;;;;;;;;;-2.90;88.40;;;;;;5035115;28;19944;-81
2022/01/16 07:41:36;;;;;;;;;;;-2.90;87.60;;;;;;5040544;28;19924;-81
2022/01/16 07:44:03;;;;;;;;;;;-2.90;88.60;;;;;;5035088;28;19921;-79
2022/01/16 07:46:30;;;;;;;;;;;-3.00;89.40;;;;;;5048228;28;20330;-79
2022/01/16 07:48:56;;;;;;;;;;;-2.90;89.10;;;;;;5043247;28;20004;-81
2022/01/16 07:51:25;;;;;;;;;;;-2.90;88.60;;;;;;5041053;28;20439;-81
2022/01/16 07:53:55;;;;;;;;;;;-2.80;88.20;;;;;;5057844;28;20785;-77
2022/01/16 07:56:22;;;;;;;;;;;-2.60;88.60;;;;;;5061308;28;20015;-78
2022/01/16 07:58:49;;;;;;;;;;;-1.90;88.00;;;;;;5049125;28;19932;-78
2022/01/16 08:01:16;;;;;;;;;;;-1.40;86.00;;;;;;5074670;28;20361;-79
2022/01/16 08:03:43;;;;;;;;;;;-1.10;84.00;;;;;;5055624;28;19981;-78
2022/01/16 08:06:13;;;;;;;;;;;-0.80;82.50;;;;;;5059409;28;20430;-79
2022/01/16 08:08:40;;;;;;;;;;;-0.60;82.50;;;;;;5073753;28;19924;-81
2022/01/16 08:11:09;;;;;;;;;;;-0.40;81.90;;;;;;5057169;28;20453;-77
2022/01/16 08:13:36;;;;;;;;;;;-0.20;81.00;;;;;;5056054;28;19920;-79
2022/01/16 08:16:03;;;;;;;;;;;-0.10;81.10;;;;;;5061306;28;19925;-77
2022/01/16 08:18:31;;;;;;;;;;;0.10;80.60;;;;;;5043185;28;20297;-79
2022/01/16 08:20:58;;;;;;;;;;;0.30;80.00;;;;;;5066400;28;19975;-79
2022/01/16 08:23:25;;;;;;;;;;;0.40;80.20;;;;;;5056161;28;19921;-77
2022/01/16 08:25:52;;;;;;;;;;;0.60;79.50;;;;;;5066059;28;19927;-79
2022/01/16 08:28:19;;;;;;;;;;;0.90;78.80;;;;;;5069236;28;19935;-81
2022/01/16 08:30:46;;;;;;;;;;;1.10;78.10;;;;;;5059391;28;20393;-82
2022/01/16 08:33:13;;;;;;;;;;;1.30;78.00;;;;;;5046122;28;19924;-79
2022/01/16 08:35:40;;;;;;;;;;;1.50;77.90;;;;;;5051304;28;19921;-82
2022/01/16 08:38:07;;;;;;;;;;;1.60;79.80;;;;;;5042433;28;20389;-79
2022/01/16 08:40:33;;;;;;;;;;;1.70;79.80;;;;;;5050296;28;20466;-79
2022/01/16 08:43:07;;;;;;;;;;;1.90;79.40;;;;;;5050045;28;19925;-81
2022/01/16 08:45:37;;;;;;;;;;;2.00;78.80;;;;;;5035509;28;19924;-79
2022/01/16 08:48:04;;;;;;;;;;;2.30;77.40;;;;;;5044616;28;19932;-80
2022/01/16 08:50:32;;;;;;;;;;;2.50;76.70;;;;;;5034207;28;19925;-79
2022/01/16 08:52:59;;;;;;;;;;;2.70;75.70;;;;;;5045121;28;19975;-77
2022/01/16 08:55:26;;;;;;;;;;;2.90;75.60;;;;;;5045810;28;20430;-80
2022/01/16 08:57:54;;;;;;;;;;;3.10;74.30;;;;;;5043497;28;20408;-81
2022/01/16 09:00:20;;;;;;;;;;;3.30;73.60;;;;;;5068901;28;19965;-81
2022/01/16 09:02:47;;;;;;;;;;;3.40;72.40;;;;;;5055668;28;20369;-77
2022/01/16 09:05:14;;;;;;;;;;;3.50;72.00;;;;;;5071673;28;19924;-77
2022/01/16 09:07:41;;;;;;;;;;;3.50;72.40;;;;;;5026567;28;19942;-81
2022/01/16 09:10:08;;;;;;;;;;;3.70;72.40;;;;;;5048907;28;19974;-77
2022/01/16 09:12:36;;;;;;;;;;;3.80;72.60;;;;;;5034077;28;20336;-77
2022/01/16 09:15:06;;;;;;;;;;;4.00;71.90;;;;;;5038278;28;19951;-78
2022/01/16 09:17:33;;;;;;;;;;;4.10;71.60;;;;;;5042557;28;19925;-78
2022/01/16 09:19:59;;;;;;;;;;;4.30;71.20;;;;;;5046905;28;20303;-78
2022/01/16 09:22:26;;;;;;;;;;;4.40;70.80;;;;;;5050966;28;19920;-78
2022/01/16 09:24:55;;;;;;;;;;;4.60;70.10;;;;;;5046585;28;20241;-77
2022/01/16 09:27:22;;;;;;;;;;;4.70;69.70;;;;;;5058264;28;19932;-78
2022/01/16 09:29:49;;;;;;;;;;;4.80;69.30;;;;;;5051349;28;19999;-77
2022/01/16 09:32:17;;;;;;;;;;;5.00;68.30;;;;;;5040701;28;20338;-78
2022/01/16 09:34:44;;;;;;;;;;;5.10;67.70;;;;;;5064471;28;20715;-77
2022/01/16 09:37:10;;;;;;;;;;;5.20;68.20;;;;;;5037198;28;20278;-79
2022/01/16 09:39:38;;;;;;;;;;;5.40;67.50;;;;;;5043005;28;19932;-76
2022/01/16 09:42:06;;;;;;;;;;;5.50;66.60;;;;;;5043133;28;19948;-78
2022/01/16 09:44:34;;;;;;;;;;;5.60;65.80;;;;;;5040225;28;19925;-78
2022/01/16 09:47:01;;;;;;;;;;;5.70;66.30;;;;;;5035474;28;19925;-77
2022/01/16 09:49:29;;;;;;;;;;;5.90;66.40;;;;;;5043277;28;20381;-78
2022/01/16 09:51:56;;;;;;;;;;;6.00;65.40;;;;;;5037191;28;19933;-77
2022/01/16 09:54:23;;;;;;;;;;;6.10;64.90;;;;;;5039718;28;19935;-78
2022/01/16 09:56:50;;;;;;;;;;;6.20;64.50;;;;;;5043892;28;19924;-78
2022/01/16 09:59:17;;;;;;;;;;;6.40;64.00;;;;;;5037180;28;19970;-78
2022/01/16 10:01:44;;;;;;;;;;;6.60;63.10;;;;;;5044737;28;19982;-79
2022/01/16 10:04:30;;;;;;;;;;;6.70;61.30;;;;;;5064848;28;19930;-79
2022/01/16 10:06:58;;;;;;;;;;;6.80;61.10;;;;;;5029648;28;20371;-79
2022/01/16 10:09:25;;;;;;;;;;;7.00;59.60;;;;;;5037679;28;20019;-79
2022/01/16 10:12:00;;;;;;;;;;;7.10;58.90;;;;;;5044133;28;19970;-78
2022/01/16 10:14:37;;;;;;;;;;;7.20;58.80;;;;;;5031518;28;19956;-77
2022/01/16 10:17:10;;;;;;;;;;;7.30;58.70;;;;;;5030225;28;20502;-80
2022/01/16 10:19:38;;;;;;;;;;;7.40;57.90;;;;;;5017234;28;19932;-80
2022/01/16 10:22:12;;;;;;;;;;;7.50;56.50;;;;;;5030881;28;19925;-79
2022/01/16 10:24:39;;;;;;;;;;;7.60;55.50;;;;;;5031087;28;20484;-79
2022/01/16 10:27:09;;;;;;;;;;;7.70;55.20;;;;;;5027996;28;19929;-80
2022/01/16 10:29:36;;;;;;;;;;;7.80;56.10;;;;;;5042521;28;19925;-79
2022/01/16 10:32:19;;;;;;;;;;;8.00;55.30;;;;;;5029961;28;19925;-79
2022/01/16 10:34:48;;;;;;;;;;;8.10;54.50;;;;;;5032475;28;19925;-79
2022/01/16 10:37:18;;;;;;;;;;;8.10;53.20;;;;;;5020819;28;19925;-77
2022/01/16 10:39:56;;;;;;;;;;;8.10;52.60;;;;;;5040806;28;19926;-80
2022/01/16 10:42:25;;;;;;;;;;;8.20;52.40;;;;;;5028152;28;19983;-79
2022/01/16 10:45:06;;;;;;;;;;;8.20;52.90;;;;;;5021227;28;20352;-79
2022/01/16 10:47:38;;;;;;;;;;;8.30;51.40;;;;;;5030432;28;20340;-79
2022/01/16 10:50:13;;;;;;;;;;;8.40;52.30;;;;;;5018028;28;20320;-77
2022/01/16 10:52:54;;;;;;;;;;;8.60;51.60;;;;;;5034588;28;19933;-79
2022/01/16 10:55:23;;;;;;;;;;;8.80;51.50;;;;;;5034769;28;19925;-79
2022/01/16 10:57:58;;;;;;;;;;;9.00;51.00;;;;;;5036204;28;20412;-79
2022/01/16 11:00:25;;;;;;;;;;;9.10;49.80;;;;;;5019009;28;21507;-79
2022/01/16 11:02:52;;;;;;;;;;;9.30;50.20;;;;;;5034716;28;20483;-79
2022/01/16 11:05:20;;;;;;;;;;;9.50;49.90;;;;;;5044772;28;19932;-79
2022/01/16 11:07:55;;;;;;;;;;;9.60;49.10;;;;;;5033403;28;19929;-78
2022/01/16 11:10:22;;;;;;;;;;;9.70;49.50;;;;;;5050537;28;19940;-78
2022/01/16 11:12:49;;;;;;;;;;;9.80;48.90;;;;;;5026764;28;20279;-80
2022/01/16 11:15:16;;;;;;;;;;;9.90;49.10;;;;;;5028527;28;20416;-79
2022/01/16 11:17:44;;;;;;;;;;;10.10;47.10;;;;;;5049308;28;19925;-81
2022/01/16 11:20:11;;;;;;;;;;;10.20;47.40;;;;;;5055594;28;20412;-80
2022/01/16 11:22:57;;;;;;;;;;;10.30;47.00;;;;;;5048163;28;19932;-80
2022/01/16 11:25:34;;;;;;;;;;;10.50;46.70;;;;;;5042099;28;19929;-78
2022/01/16 11:28:03;;;;;;;;;;;10.70;47.70;;;;;;5026186;28;19936;-80
2022/01/16 11:30:33;;;;;;;;;;;10.80;45.90;;;;;;5023181;28;19925;-79
2022/01/16 11:33:00;;;;;;;;;;;10.90;46.10;;;;;;5046087;28;19929;-80
2022/01/16 11:35:27;;;;;;;;;;;10.80;44.90;;;;;;5043185;28;19931;-77
2022/01/16 11:37:55;;;;;;;;;;;10.80;45.90;;;;;;5036624;28;19979;-77
2022/01/16 11:40:28;;;;;;;;;;;10.80;44.30;;;;;;5054231;28;20019;-77
2022/01/16 11:43:30;;;;;;;;;;;10.90;45.60;;;;;;5044278;28;20397;-79
2022/01/16 11:46:06;;;;;;;;;;;11.00;44.60;;;;;;4993082;28;19929;-80
2022/01/16 11:48:55;;;;;;;;;;;11.20;45.60;;;;;;5048961;28;19928;-77
2022/01/16 11:51:32;;;;;;;;;;;11.40;45.90;;;;;;5036292;28;19928;-79
2022/01/16 11:54:09;;;;;;;;;;;11.40;45.60;;;;;;5022296;28;20575;-80
2022/01/16 11:56:39;;;;;;;;;;;11.50;46.90;;;;;;5051841;28;19924;-77
2022/01/16 11:59:13;;;;;;;;;;;11.60;47.70;;;;;;5033348;28;19929;-81
2022/01/16 12:01:44;;;;;;;;;;;11.50;47.40;;;;;;5029838;28;20408;-77
2022/01/16 12:04:29;;;;;;;;;;;11.50;47.90;;;;;;5043913;28;19925;-79
2022/01/16 12:07:17;;;;;;;;;;;11.60;47.20;;;;;;5031380;28;19933;-81
2022/01/16 12:12:14;;;;;;;;;;;11.90;46.50;;;;;;5027935;28;20056;-78
2022/01/16 12:14:46;;;;;;;;;;;12.00;46.10;;;;;;5029611;28;20389;-78
2022/01/16 12:17:44;;;;;;;;;;;12.20;45.10;;;;;;5028514;28;19929;-77
2022/01/16 12:20:12;;;;;;;;;;;12.30;44.00;;;;;;5037838;28;20277;-80
2022/01/16 12:22:48;;;;;;;;;;;12.40;42.40;;;;;;5040103;28;19931;-81
2022/01/16 12:25:36;;;;;;;;;;;12.50;41.70;;;;;;5046753;28;20380;-80
2022/01/16 12:28:09;;;;;;;;;;;12.60;41.40;;;;;;5042880;28;19933;-79
2022/01/16 12:30:38;;;;;;;;;;;12.70;42.60;;;;;;5034096;28;19925;-77
2022/01/16 12:33:09;;;;;;;;;;;12.80;41.30;;;;;;5043116;28;19925;-80
2022/01/16 12:35:39;;;;;;;;;;;12.90;41.60;;;;;;5055754;28;19925;-80
2022/01/16 12:38:06;;;;;;;;;;;12.90;41.10;;;;;;5043020;28;19929;-80
2022/01/16 12:40:33;;;;;;;;;;;12.90;40.90;;;;;;5037576;28;19929;-79
2022/01/16 12:43:01;;;;;;;;;;;12.90;41.60;;;;;;5029166;28;19924;-79
2022/01/16 12:45:29;;;;;;;;;;;13.00;40.50;;;;;;5057875;28;19924;-80
2022/01/16 12:47:57;;;;;;;;;;;12.80;40.80;;;;;;5050584;28;19948;-79
2022/01/16 12:50:24;;;;;;;;;;;13.00;40.60;;;;;;5035238;28;20475;-79
2022/01/16 12:52:51;;;;;;;;;;;13.10;40.70;;;;;;5052164;28;19928;-80
2022/01/16 12:55:17;;;;;;;;;;;13.20;40.60;;;;;;5065167;28;19978;-79
2022/01/16 12:57:44;;;;;;;;;;;13.40;40.80;;;;;;5043684;28;19933;-80
2022/01/16 13:00:11;;;;;;;;;;;13.40;40.10;;;;;;5055324;28;19925;-80
2022/01/16 13:02:38;;;;;;;;;;;13.50;40.20;;;;;;5051909;28;19925;-80
2022/01/16 13:05:06;;;;;;;;;;;13.50;39.50;;;;;;5022323;28;19925;-77
2022/01/16 13:08:00;;;;;;;;;;;13.50;39.30;;;;;;5068626;28;19925;-79
2022/01/16 13:10:27;;;;;;;;;;;13.30;39.00;;;;;;5028567;28;19932;-79
2022/01/16 13:12:53;;;;;;;;;;;13.30;39.50;;;;;;5018451;28;20006;-77
2022/01/16 13:15:23;;;;;;;;;;;13.30;39.40;;;;;;5047766;28;20613;-78
2022/01/16 13:17:50;;;;;;;;;;;13.30;39.00;;;;;;5063792;28;19929;-80
2022/01/16 13:20:24;;;;;;;;;;;13.40;39.30;;;;;;5065233;28;19932;-81
2022/01/16 13:22:55;;;;;;;;;;;13.40;39.10;;;;;;5066359;28;19970;-79
2022/01/16 13:25:22;;;;;;;;;;;13.40;39.50;;;;;;5042456;28;19977;-78
2022/01/16 13:27:50;;;;;;;;;;;13.40;39.90;;;;;;5039729;28;20308;-80
2022/01/16 13:30:24;;;;;;;;;;;13.40;39.20;;;;;;5042815;28;19939;-78
2022/01/16 13:32:51;;;;;;;;;;;13.40;40.50;;;;;;5059458;28;19979;-77
2022/01/16 13:35:29;;;;;;;;;;;13.40;39.80;;;;;;5035243;28;20469;-77
2022/01/16 13:38:06;;;;;;;;;;;13.40;40.10;;;;;;5036307;28;19925;-80
2022/01/16 13:40:39;;;;;;;;;;;13.40;40.20;;;;;;5035362;28;19944;-80
2022/01/16 13:43:12;;;;;;;;;;;13.40;40.20;;;;;;5042003;28;19928;-80
2022/01/16 13:45:43;;;;;;;;;;;13.40;40.30;;;;;;5034063;28;19937;-80
2022/01/16 13:48:24;;;;;;;;;;;13.40;39.50;;;;;;5052410;28;19925;-80
2022/01/16 13:50:53;;;;;;;;;;;13.30;39.70;;;;;;5050876;28;19924;-80
2022/01/16 13:53:24;;;;;;;;;;;13.30;40.20;;;;;;5026317;28;19936;-81
2022/01/16 13:55:52;;;;;;;;;;;13.40;40.50;;;;;;5037579;28;19974;-80
2022/01/16 13:58:24;;;;;;;;;;;13.40;39.60;;;;;;5028414;28;19933;-77
2022/01/16 14:00:52;;;;;;;;;;;13.30;39.30;;;;;;5044707;28;19925;-80
2022/01/16 14:03:23;;;;;;;;;;;13.20;39.40;;;;;;5051587;28;20393;-77
2022/01/16 14:05:51;;;;;;;;;;;13.20;39.80;;;;;;5022662;28;20035;-80
2022/01/16 14:08:26;;;;;;;;;;;13.20;39.50;;;;;;5030469;28;20020;-79
2022/01/16 14:10:54;;;;;;;;;;;13.20;40.10;;;;;;5042673;28;19933;-80
2022/01/16 14:13:21;;;;;;;;;;;13.10;39.90;;;;;;5030793;28;19932;-81
2022/01/16 14:16:06;;;;;;;22.15;14.35;;;13.20;40.10;;;;;;5034565;28;19925;-80
2022/01/16 14:24:10;;;;;;;;;;;12.90;39.80;;;;;;5042230;28;19947;-79
2022/01/16 14:26:46;;;;;;;;;;;12.80;40.10;;;;;;5033292;28;20589;-80
2022/01/16 14:29:15;;;;;;;;;;;12.70;40.00;;;;;;5044427;28;19971;-77
2022/01/16 14:31:42;;;;;;;;;;;12.60;40.40;;;;;;5046455;28;19927;-77
2022/01/16 14:34:11;;;;;;;;;;;12.50;40.80;;;;;;5048130;28;19924;-78
2022/01/16 14:36:39;;;;;;;;;;;12.50;41.40;;;;;;5051404;28;19921;-77
2022/01/16 14:39:06;;;;;;;;;;;12.40;41.20;;;;;;5045224;28;19928;-77
2022/01/16 14:41:36;;;;;;;;;;;12.40;41.40;;;;;;5035358;28;19934;-80
2022/01/16 14:44:06;;;;;;;;;;;12.40;41.40;;;;;;5040704;28;19924;-79
2022/01/16 14:46:33;;;;;;;;;;;12.40;42.00;;;;;;5051094;28;19927;-80
2022/01/16 14:49:00;;;;;;;;;;;12.30;42.00;;;;;;5040616;28;20372;-77
2022/01/16 14:51:27;;;;;;;;;;;12.40;42.30;;;;;;5043167;28;19929;-81
2022/01/16 14:53:54;;;;;;;;;;;12.40;42.30;;;;;;5038042;28;19954;-81
2022/01/16 14:56:20;;;;;;;;;;;12.30;42.40;;;;;;5053702;28;20381;-80
2022/01/16 14:58:47;;;;;;;;;;;12.40;42.30;;;;;;5077058;28;20372;-80
2022/01/16 15:01:14;;;;;;;;;;;12.30;42.20;;;;;;5069043;28;19928;-79
2022/01/16 15:03:43;;;;;;;;;;;12.30;42.50;;;;;;5069667;28;19955;-82
2022/01/16 15:06:10;;;;;;;;;;;12.30;43.10;;;;;;5048715;28;19925;-79
2022/01/16 15:08:46;;;;;;;;;;;12.30;43.30;;;;;;5042498;28;19920;-77
2022/01/16 15:11:14;;;;;;;;;;;12.30;42.80;;;;;;5049027;28;19921;-79
2022/01/16 15:13:42;;;;;;;;;;;12.30;43.30;;;;;;5055570;28;19925;-80
2022/01/16 15:16:15;;;;;;;;;;;12.20;43.10;;;;;;5046454;28;19932;-83
2022/01/16 15:18:43;;;;;;;;;;;12.20;44.20;;;;;;5033387;28;19920;-82